Latest Weather Observations for Townsville

IDQ60801

Issued at 5:42 pm EST Thursday 9 April 2020 (issued every 10 minutes, with the page automatically refreshed every 10 minutes)

About weather observations | Map of weather stations | Latest weather observations for QLD | Other Formats
Station Details ID: 032040 Name: TOWNSVILLE AERO Lat: -19.25 Lon: 146.77 Height: 4.34 m
Data from the previous 72 hours. | See also: Recent months at Townsville
Date/Time
EST
Temp
°C
App
Temp
°C
Dew
Point
°C
Rel
Hum
%
Delta-T
°C
Wind Press
QNH
hPa
Press
MSL
hPa
Rain since
9am
mm
Dir  Spd
km/h
Gust
km/h
Spd
kts
Gust
kts
09/05:30pm 27.4 26.4 19.7 63 5.0 E 24 30 13 16 1015.3 1015.2 0.0
09/05:00pm 28.2 27.4 20.0 61 5.4 ENE 24 32 13 17 1015.0 1014.9 0.0
09/04:30pm 28.5 26.0 18.9 56 6.2 ENE 30 35 16 19 1014.8 1014.7 0.0
09/04:00pm 29.2 27.5 19.8 57 6.1 ENE 28 35 15 19 1014.6 1014.5 0.0
09/03:30pm 29.5 26.6 18.9 53 6.9 ENE 32 39 17 21 1014.4 1014.3 0.0
09/03:00pm 29.2 26.6 18.6 52 6.8 ENE 30 39 16 21 1014.4 1014.3 0.0
09/02:30pm 30.3 29.4 21.4 59 6.0 ENE 28 37 15 20 1014.6 1014.5 0.0
09/02:00pm 29.6 28.3 20.7 58 5.9 E 28 35 15 19 1014.6 1014.5 0.0
09/01:30pm 30.0 28.8 20.0 55 6.6 ENE 26 35 14 19 1015.0 1014.9 0.0
09/01:00pm 29.8 28.6 20.9 59 5.9 ENE 28 37 15 20 1015.4 1015.3 0.0
09/12:30pm 29.8 28.8 20.4 57 6.2 ENE 26 37 14 20 1015.7 1015.6 0.0
09/12:00pm 29.7 28.3 20.5 57 6.1 ENE 28 33 15 18 1016.2 1016.1 0.0
09/11:30am 29.1 27.5 20.0 58 6.0 E 28 37 15 20 1016.8 1016.7 0.0
09/11:00am 30.0 29.0 20.5 56 6.3 E 26 33 14 18 1017.3 1017.2 0.0
09/10:30am 29.1 29.5 21.8 64 4.9 E 22 30 12 16 1017.5 1017.4 0.0
09/10:00am 28.8 29.1 20.3 60 5.6 ESE 19 28 10 15 1017.6 1017.5 0.0
09/09:30am 27.8 28.6 20.6 65 4.7 ESE 17 26 9 14 1017.6 1017.5 0.0
09/09:00am 27.4 28.9 21.2 69 4.1 ESE 15 20 8 11 1017.5 1017.4 0.0
09/08:30am 26.7 28.4 21.0 71 3.8 SSE 13 15 7 8 1017.4 1017.3 0.0
09/08:00am 25.7 28.7 20.9 75 3.2 SSW 6 9 3 5 1017.0 1016.9 0.0
09/07:30am 23.7 28.0 21.2 86 1.6 CALM 0 0 0 0 1016.6 1016.5 0.0
09/07:00am 22.2 26.3 20.8 92 0.9 CALM 0 0 0 0 1016.2 1016.1 0.0
09/06:30am 21.9 25.5 19.8 88 1.3 CALM 0 0 0 0 1016.0 1015.9 0.0
09/06:00am 22.5 24.8 19.9 85 1.7 S 7 7 4 4 1015.7 1015.6 0.0
09/05:30am 23.2 26.8 19.8 81 2.2 CALM 0 0 0 0 1015.3 1015.2 0.0
09/05:00am 22.9 24.8 19.7 82 2.0 SE 9 11 5 6 1015.1 1015.0 0.0
09/04:30am 23.1 25.0 19.7 81 2.2 SE 9 11 5 6 1014.9 1014.8 0.0
09/04:00am 23.2 24.7 19.8 81 2.2 SE 11 13 6 7 1014.9 1014.8 0.0
09/03:30am 23.6 24.8 19.9 80 2.4 SE 13 15 7 8 1014.8 1014.7 0.0
09/03:00am 23.6 24.9 20.1 81 2.3 SE 13 15 7 8 1014.8 1014.7 0.0
09/02:30am 23.9 25.3 20.4 81 2.3 SE 13 15 7 8 1014.7 1014.6 0.0
09/02:00am 24.1 25.6 20.6 81 2.3 SE 13 15 7 8 1014.9 1014.8 0.0
09/01:30am 24.3 25.8 20.6 80 2.4 SE 13 15 7 8 1015.2 1015.1 0.0
09/01:00am 24.8 26.4 20.7 78 2.7 SE 13 15 7 8 1015.4 1015.3 0.0
09/12:30am 25.5 27.1 20.7 75 3.1 SE 13 19 7 10 1015.6 1015.5 0.0
09/12:00am 25.7 26.6 20.0 71 3.7 E 15 20 8 11 1015.7 1015.6 0.0
 
Date/Time
EST
Temp
°C
App
Temp
°C
Dew
Point
°C
Rel
Hum
%
Delta-T
°C
Wind Press
QNH
hPa
Press
MSL
hPa
Rain since
9am
mm
Dir  Spd
km/h
Gust
km/h
Spd
kts
Gust
kts
08/11:30pm 25.5 26.9 21.0 76 3.0 SE 15 19 8 10 1015.7 1015.6 0.0
08/11:00pm 25.8 27.6 21.2 76 3.0 SSE 13 15 7 8 1015.9 1015.8 0.0
08/10:30pm 26.3 28.2 20.6 71 3.7 ESE 11 19 6 10 1016.0 1015.9 0.0
08/10:00pm 26.2 27.8 20.8 72 3.5 E 13 20 7 11 1015.8 1015.7 0.0
08/09:30pm 26.1 27.9 21.1 74 3.3 ENE 13 17 7 9 1015.6 1015.5 0.0
08/09:00pm 26.1 27.7 20.7 72 3.5 ENE 13 19 7 10 1015.5 1015.4 0.0
08/08:30pm 25.8 26.7 20.1 71 3.7 E 15 17 8 9 1015.2 1015.1 0.0
08/08:00pm 26.1 27.1 20.2 70 3.8 E 15 19 8 10 1014.9 1014.8 0.0
08/07:30pm 25.9 26.2 19.5 68 4.1 E 17 22 9 12 1014.5 1014.4 0.0
08/07:00pm 25.9 26.2 19.5 68 4.1 ENE 17 20 9 11 1014.0 1013.9 0.0
08/06:30pm 26.3 26.0 19.2 65 4.6 ENE 19 24 10 13 1013.5 1013.4 0.0
08/06:00pm 26.9 26.5 19.0 62 5.1 ENE 19 24 10 13 1013.3 1013.2 0.0
08/05:30pm 27.5 27.3 19.3 61 5.3 ENE 19 24 10 13 1013.0 1012.9 0.0
08/05:00pm 27.7 27.4 19.5 61 5.3 ENE 20 28 11 15 1012.7 1012.6 0.0
08/04:30pm 28.6 28.0 18.4 54 6.5 ENE 19 26 10 14 1012.5 1012.4 0.0
08/04:00pm 28.8 27.9 19.1 55 6.3 ENE 22 30 12 16 1012.5 1012.4 0.0
08/03:30pm 29.2 27.8 18.9 53 6.7 ENE 24 32 13 17 1012.4 1012.3 0.0
08/03:00pm 29.8 27.9 18.6 51 7.2 ENE 26 33 14 18 1012.2 1012.1 0.0
08/02:30pm 29.7 27.7 19.1 53 6.9 ENE 28 33 15 18 1012.4 1012.3 0.0
08/02:00pm 29.6 27.7 19.3 54 6.7 ENE 28 35 15 19 1012.7 1012.6 0.0
08/01:30pm 30.2 28.4 19.6 53 6.9 ENE 28 33 15 18 1013.0 1012.9 0.0
08/01:00pm 29.8 28.9 19.8 55 6.6 ENE 24 32 13 17 1013.3 1013.2 0.0
08/12:30pm 30.1 29.3 20.9 57 6.1 ENE 26 35 14 19 1013.7 1013.6 0.0
08/12:00pm 29.7 28.6 20.3 57 6.2 ENE 26 39 14 21 1014.1 1014.0 0.0
08/11:30am 29.3 28.6 20.2 58 6.0 E 24 32 13 17 1014.5 1014.4 0.0
08/11:00am 28.9 28.5 20.1 59 5.8 E 22 33 12 18 1014.9 1014.8 0.0
08/10:30am 29.3 29.3 21.0 61 5.5 ESE 22 33 12 18 1015.0 1014.9 0.0
08/10:00am 28.1 27.3 20.1 62 5.2 ESE 24 32 13 17 1015.4 1015.3 0.0
08/09:30am 28.0 28.3 20.8 65 4.8 SE 20 30 11 16 1015.1 1015.0 0.0
08/09:00am 27.5 28.1 20.3 65 4.7 SE 17 24 9 13 1015.0 1014.9 0.0
08/08:30am 26.5 27.1 19.4 65 4.6 SE 15 19 8 10 1014.7 1014.6 0.0
08/08:00am 25.8 26.2 19.0 66 4.4 SE 15 19 8 10 1014.3 1014.2 0.0
08/07:30am 24.6 25.5 19.2 72 3.5 SSE 13 17 7 9 1014.2 1014.1 0.0
08/07:00am 22.9 24.3 19.5 81 2.2 SSE 11 13 6 7 1013.6 1013.5 0.0
08/06:30am 22.0 23.3 19.4 85 1.7 SSE 11 13 6 7 1013.4 1013.3 0.0
08/06:00am 22.1 23.3 19.1 83 1.9 SSE 11 13 6 7 1013.3 1013.2 0.0
08/05:30am 21.8 23.3 19.0 84 1.8 SSE 9 13 5 7 1013.0 1012.9 0.0
08/05:00am 22.4 23.9 18.8 80 2.3 SSE 9 11 5 6 1012.9 1012.8 0.0
08/04:30am 22.6 24.1 18.8 79 2.4 SE 9 11 5 6 1012.6 1012.5 0.0
08/04:00am 23.0 24.2 19.0 78 2.5 SE 11 13 6 7 1012.6 1012.5 0.0
08/03:30am 23.4 24.1 18.9 76 2.9 SE 13 15 7 8 1012.5 1012.4 0.0
08/03:00am 23.9 24.4 19.2 75 3.0 SE 15 19 8 10 1012.5 1012.4 0.0
08/02:30am 24.4 24.9 19.2 73 3.3 SE 15 19 8 10 1012.5 1012.4 0.0
08/02:00am 24.9 25.2 19.5 72 3.5 ESE 17 24 9 13 1012.7 1012.6 0.0
08/01:30am 25.2 25.8 20.2 74 3.3 ESE 17 24 9 13 1012.8 1012.7 0.0
08/01:00am 25.3 26.3 20.3 74 3.3 SE 15 22 8 12 1013.1 1013.0 0.0
08/12:30am 26.1 26.7 20.2 70 3.8 ESE 17 24 9 13 1013.4 1013.3 0.0
08/12:00am 25.9 26.2 19.5 68 4.1 E 17 30 9 16 1013.7 1013.6 0.0
 
Date/Time
EST
Temp
°C
App
Temp
°C
Dew
Point
°C
Rel
Hum
%
Delta-T
°C
Wind Press
QNH
hPa
Press
MSL
hPa
Rain since
9am
mm
Dir  Spd
km/h
Gust
km/h
Spd
kts
Gust
kts
07/11:30pm 26.0 25.8 19.4 67 4.3 E 19 26 10 14 1013.5 1013.4 0.0
07/11:00pm 26.1 26.0 19.5 67 4.3 E 19 28 10 15 1013.8 1013.7 0.0
07/10:30pm 26.0 25.8 19.4 67 4.3 E 19 24 10 13 1014.0 1013.9 0.0
07/10:00pm 26.1 26.6 20.0 69 4.0 E 17 26 9 14 1014.1 1014.0 0.0
07/09:30pm 26.3 26.5 20.2 69 4.0 E 19 26 10 14 1013.9 1013.8 0.0
07/09:00pm 26.4 26.8 20.7 71 3.7 E 19 28 10 15 1013.8 1013.7 0.0
07/08:30pm 26.5 27.0 20.8 71 3.8 E 19 26 10 14 1013.6 1013.5 0.0
07/08:00pm 26.5 27.1 21.0 72 3.6 E 19 24 10 13 1013.3 1013.2 0.0
07/07:30pm 26.6 27.6 21.1 72 3.6 E 17 24 9 13 1013.1 1013.0 0.0
07/07:00pm 26.7 27.7 21.0 71 3.8 E 17 22 9 12 1012.6 1012.5 0.0
07/06:30pm 26.7 27.2 20.8 70 3.9 E 19 28 10 15 1012.2 1012.1 0.0
07/06:00pm 27.0 26.9 20.8 69 4.1 ENE 22 28 12 15 1012.0 1011.9 0.0
07/05:30pm 27.6 27.2 20.9 67 4.4 ENE 24 32 13 17 1011.8 1011.7 0.0
07/05:00pm 28.1 27.8 21.1 65 4.7 ENE 24 30 13 16 1011.6 1011.5 0.0
07/04:30pm 28.6 28.4 22.1 68 4.4 ENE 26 33 14 18 1011.4 1011.3 0.0
07/04:00pm 28.9 27.9 21.9 66 4.7 ENE 30 35 16 19 1011.3 1011.2 0.0
07/03:30pm 29.9 29.6 21.8 62 5.5 ENE 26 32 14 17 1011.3 1011.2 0.0
07/03:00pm 29.4 28.7 21.1 61 5.5 ENE 26 33 14 18 1011.3 1011.2 0.0
07/02:30pm 29.6 29.2 21.0 60 5.7 ENE 24 32 13 17 1011.3 1011.2 0.0
07/02:00pm 30.0 28.8 20.0 55 6.6 ENE 26 32 14 17 1011.5 1011.4 0.0
07/01:30pm 30.0 29.2 20.0 55 6.6 ENE 24 33 13 18 1011.9 1011.8 0.0
07/01:00pm 30.2 28.5 19.9 54 6.8 ENE 28 33 15 18 1012.3 1012.2 0.0
07/12:30pm 30.2 29.2 21.3 59 6.0 ENE 28 35 15 19 1012.6 1012.5 0.0
07/12:00pm 29.6 29.0 20.5 58 6.0 ENE 24 33 13 18 1013.3 1013.2 0.0
07/11:30am 30.3 28.7 19.3 51 7.2 E 26 33 14 18 1013.8 1013.7 0.0
07/11:00am 29.2 29.7 21.2 62 5.3 E 20 30 11 16 1014.3 1014.2 0.0
07/10:30am 29.1 29.4 20.3 59 5.8 ESE 19 32 10 17 1014.6 1014.5 0.0
07/10:00am 29.6 30.6 21.0 60 5.7 ESE 17 28 9 15 1014.6 1014.5 0.0
07/09:30am 28.4 29.5 21.9 68 4.4 E 19 28 10 15 1014.7 1014.6 0.0
07/09:00am 27.7 29.8 21.7 70 4.0 SE 13 22 7 12 1014.6 1014.5 0.0
07/08:30am 27.3 29.8 21.8 72 3.7 SE 11 19 6 10 1014.4 1014.3 0.0
07/08:00am 26.6 29.6 22.0 76 3.1 SSE 9 11 5 6 1014.0 1013.9 0.0
07/07:30am 25.7 28.9 22.4 82 2.2 SSE 9 11 5 6 1013.6 1013.5 0.0
07/07:00am 24.6 27.7 22.1 86 1.7 SE 9 13 5 7 1013.1 1013.0 0.0
07/06:30am 24.2 27.4 22.3 89 1.3 SE 9 11 5 6 1012.8 1012.7 0.0
07/06:00am 24.5 27.6 22.2 87 1.5 SSW 9 9 5 5 1012.6 1012.5 0.0
07/05:30am 24.9 28.0 22.2 85 1.8 SSE 9 11 5 6 1012.2 1012.1 0.0
07/05:00am 25.0 28.6 23.1 89 1.3 SE 9 11 5 6 1011.9 1011.8 0.0
07/04:30am 25.2 27.8 22.7 86 1.7 SE 13 17 7 9 1011.6 1011.5 0.0
07/04:00am 25.1 28.2 22.2 84 1.9 ESE 9 11 5 6 1011.4 1011.3 0.0
07/03:30am 25.3 26.6 21.6 80 2.5 ENE 17 24 9 13 1011.4 1011.3 0.0
07/03:00am 25.2 27.1 22.1 83 2.1 E 15 19 8 10 1011.6 1011.5 0.0
07/02:30am 25.3 27.3 23.0 87 1.6 E 17 22 9 12 1011.9 1011.8 0.0
07/02:00am 25.5 28.6 23.6 89 1.3 E 13 20 7 11 1012.1 1012.0 0.0
07/01:30am 25.4 26.8 22.5 84 1.9 ENE 19 26 10 14 1012.3 1012.2 0.0
07/01:00am 25.6 27.2 23.3 87 1.6 ESE 20 28 11 15 1012.4 1012.3 0.0
07/12:30am 25.9 29.6 23.2 85 1.8 SE 9 13 5 7 1012.6 1012.5 0.0
07/12:00am 26.7 30.0 23.2 81 2.4 E 11 15 6 8 1012.9 1012.8 0.0
 
Date/Time
EST
Temp
°C
App
Temp
°C
Dew
Point
°C
Rel
Hum
%
Delta-T
°C
Wind Press
QNH
hPa
Press
MSL
hPa
Rain since
9am
mm
Dir  Spd
km/h
Gust
km/h
Spd
kts
Gust
kts
06/11:30pm 26.5 29.6 22.8 80 2.5 E 11 15 6 8 1012.9 1012.8 0.0
06/11:00pm 26.8 28.6 22.6 78 2.8 ENE 17 20 9 11 1013.0 1012.9 0.0
06/10:30pm 27.0 30.0 23.3 80 2.5 E 13 17 7 9 1013.2 1013.1 0.0
06/10:00pm 26.9 29.6 23.4 81 2.4 ENE 15 19 8 10 1013.2 1013.1 0.0
06/09:30pm 26.9 29.2 22.7 78 2.8 ENE 15 19 8 10 1013.3 1013.2 0.0
06/09:00pm 27.2 30.0 23.7 81 2.4 NE 15 20 8 11 1013.1 1013.0 0.0
06/08:30pm 27.1 29.5 23.6 81 2.4 ENE 17 20 9 11 1013.1 1013.0 0.0
06/08:00pm 27.1 30.7 23.8 82 2.3 ENE 11 15 6 8 1012.8 1012.7 0.0
06/07:30pm 26.9 29.9 23.4 81 2.4 ENE 13 17 7 9 1012.5 1012.4 0.0
06/07:00pm 27.1 29.6 23.1 79 2.7 ENE 15 19 8 10 1012.3 1012.2 0.0
06/06:30pm 27.1 29.7 23.3 80 2.6 ENE 15 17 8 9 1012.1 1012.0 0.0
06/06:00pm 27.3 29.4 23.1 78 2.9 ENE 17 24 9 13 1011.9 1011.8 0.0

Other formats

Comma delimited format used in spreadsheet applications
http://www.bom.gov.au/fwo/IDQ60801/IDQ60801.94294.axf

JavaScript Object Notation format (JSON) in row-major order
http://www.bom.gov.au/fwo/IDQ60801/IDQ60801.94294.json

Data quality

Most of these data are generated automatically and are frequently updated. Quality checks on data are not normally performed. It is possible for incorrect values to appear. Refer to information at About Latest Weather Observations and please check the disclaimer before using these data.